createdAt,value
2018-06-03T05:04:56.044Z,19.12
2018-06-03T05:09:59.328Z,19.26
2018-06-03T05:15:02.611Z,19.30
2018-06-03T05:20:26.033Z,19.33
2018-06-03T05:25:29.323Z,19.39
2018-06-03T05:30:44.263Z,19.46
2018-06-03T05:35:47.573Z,19.64
2018-06-03T05:40:50.868Z,19.85
2018-06-03T05:45:54.163Z,20.07
2018-06-03T05:50:57.459Z,20.27
2018-06-03T05:56:00.736Z,20.51
2018-06-03T06:01:04.025Z,20.76
2018-06-03T06:06:07.315Z,20.96
2018-06-03T06:11:10.608Z,21.14
2018-06-03T06:16:13.996Z,21.31
2018-06-03T06:21:18.079Z,21.45
2018-06-03T06:26:21.383Z,21.60
2018-06-03T06:31:24.692Z,21.66
2018-06-03T06:36:28.027Z,21.77
2018-06-03T06:41:31.770Z,21.74
2018-06-03T06:46:35.134Z,21.98
2018-06-03T06:51:38.456Z,22.13
2018-06-03T06:56:41.929Z,22.18
2018-06-03T07:01:46.012Z,22.34
2018-06-03T07:06:49.332Z,22.50
2018-06-03T07:11:52.646Z,22.60
2018-06-03T07:16:56.093Z,22.73
2018-06-03T07:21:59.381Z,22.78
2018-06-03T07:27:02.688Z,22.84
2018-06-03T07:32:06.260Z,22.96
2018-06-03T07:37:10.300Z,23.08
2018-06-03T07:42:13.594Z,23.13
2018-06-03T07:47:16.876Z,23.17
2018-06-03T07:52:20.168Z,23.26
2018-06-03T07:57:23.555Z,23.27
2018-06-03T08:02:26.762Z,23.35
2018-06-03T08:07:30.242Z,23.50
2018-06-03T08:12:34.485Z,23.58
2018-06-03T08:17:38.540Z,23.66
2018-06-03T08:22:41.858Z,23.79
2018-06-03T08:27:45.137Z,23.88
2018-06-03T08:32:48.421Z,23.99
2018-06-03T08:37:51.707Z,24.13
2018-06-03T08:42:55.171Z,24.20
2018-06-03T08:47:58.475Z,24.37
2018-06-03T08:53:01.774Z,24.24
2018-06-03T08:58:05.068Z,24.53
2018-06-03T09:03:08.352Z,24.63
2018-06-03T09:08:23.289Z,24.68
2018-06-03T09:13:27.338Z,24.89
2018-06-03T09:18:30.626Z,24.63
2018-06-03T09:23:33.934Z,24.63
2018-06-03T09:28:37.238Z,24.59
2018-06-03T09:33:40.537Z,24.87
2018-06-03T09:38:43.916Z,25.05
2018-06-03T09:43:47.224Z,25.19
2018-06-03T09:48:50.510Z,25.08
2018-06-03T09:53:53.822Z,25.21
2018-06-03T09:58:57.213Z,25.09
2018-06-03T10:04:00.500Z,25.17
2018-06-03T10:09:03.824Z,25.19
2018-06-03T10:14:07.131Z,25.41
2018-06-03T10:19:10.417Z,25.59
2018-06-03T10:24:13.700Z,25.66
2018-06-03T10:29:16.983Z,25.64
2018-06-03T10:34:21.040Z,25.62
2018-06-03T10:39:24.340Z,25.88
2018-06-03T10:44:27.617Z,25.90
2018-06-03T10:49:31.173Z,26.04
2018-06-03T10:54:35.522Z,26.18
2018-06-03T10:59:42.524Z,26.15
2018-06-03T11:04:45.817Z,26.30
2018-06-03T11:09:49.870Z,26.25
2018-06-03T11:14:53.159Z,26.36
2018-06-03T11:20:09.771Z,26.34
2018-06-03T11:25:13.835Z,26.47
2018-06-03T11:35:58.312Z,26.65
2018-06-03T11:41:02.359Z,26.68
2018-06-03T11:46:05.655Z,26.85
2018-06-03T11:51:09.706Z,26.78
2018-06-03T11:56:12.991Z,26.92
2018-06-03T12:01:17.049Z,27.36
2018-06-03T12:06:20.330Z,27.59
2018-06-03T12:11:24.389Z,27.88
2018-06-03T12:16:28.432Z,28.05
2018-06-03T12:21:31.728Z,27.83
2018-06-03T12:26:35.018Z,28.31
2018-06-03T12:31:39.069Z,28.28
2018-06-03T12:36:42.360Z,28.46
2018-06-03T12:41:46.775Z,28.61
2018-06-03T12:46:50.597Z,28.77
2018-06-03T12:51:55.492Z,27.82
2018-06-03T12:56:59.380Z,28.73
2018-06-03T13:02:03.143Z,28.44
2018-06-03T13:07:06.892Z,29.18
2018-06-03T13:12:10.545Z,29.03
2018-06-03T13:17:14.921Z,29.09
2018-06-03T13:22:18.585Z,29.56
2018-06-03T13:27:23.056Z,30.38
2018-06-03T13:32:26.629Z,30.26
2018-06-03T13:37:30.188Z,30.64
2018-06-03T13:42:34.652Z,30.30
2018-06-03T13:47:38.833Z,31.00
2018-06-03T13:52:42.353Z,31.27
2018-06-03T13:57:45.928Z,31.65
2018-06-03T14:02:49.466Z,31.40
2018-06-03T14:07:53.558Z,31.11
2018-06-03T14:12:57.293Z,31.62
2018-06-03T14:18:01.746Z,32.00
2018-06-03T14:23:05.061Z,31.93
2018-06-03T14:28:08.346Z,31.17
2018-06-03T14:33:11.636Z,31.48
2018-06-03T14:38:16.917Z,31.71
2018-06-03T14:43:20.207Z,30.80
2018-06-03T14:48:24.266Z,30.83
2018-06-03T14:53:27.551Z,30.20
2018-06-03T14:58:32.807Z,30.27
2018-06-03T15:03:36.403Z,31.10
2018-06-03T15:08:40.250Z,32.31
2018-06-03T15:13:44.736Z,33.69
2018-06-03T15:18:48.203Z,33.29
2018-06-03T15:23:52.025Z,32.89
2018-06-03T15:28:55.347Z,34.18
2018-06-03T15:33:58.639Z,33.13
2018-06-03T15:39:01.969Z,32.81
2018-06-03T15:44:06.110Z,32.73
2018-06-03T15:49:09.380Z,32.69
2018-06-03T15:54:12.623Z,32.32
2018-06-03T15:59:16.683Z,31.78
2018-06-03T16:04:19.971Z,31.91
2018-06-03T16:09:24.038Z,31.47
2018-06-03T16:14:27.315Z,31.12
2018-06-03T16:19:31.397Z,31.52
2018-06-03T16:24:34.712Z,31.43
2018-06-03T16:29:37.990Z,31.15
2018-06-03T16:34:41.268Z,30.88
2018-06-03T16:39:50.135Z,30.78
2018-06-03T16:44:53.418Z,30.65
2018-06-03T16:49:59.423Z,30.40
2018-06-03T16:55:02.712Z,30.31
2018-06-03T17:00:17.052Z,30.20
2018-06-03T17:05:20.331Z,30.54
2018-06-03T17:10:25.568Z,31.32
2018-06-03T17:15:28.858Z,32.44
2018-06-03T17:20:32.931Z,33.16
2018-06-03T17:25:36.198Z,33.60
2018-06-03T17:30:45.468Z,33.99
2018-06-03T17:35:48.752Z,34.15
2018-06-03T17:40:52.049Z,33.74
2018-06-03T17:45:55.330Z,33.49
2018-06-03T17:50:58.623Z,33.07
2018-06-03T17:56:01.911Z,32.22
2018-06-03T18:01:05.972Z,32.38
2018-06-03T18:06:09.256Z,32.72
2018-06-03T18:11:12.605Z,32.74
2018-06-03T18:16:16.618Z,32.70
2018-06-03T18:21:19.940Z,32.26
2018-06-03T18:26:23.225Z,32.08
2018-06-03T18:31:27.272Z,32.09
2018-06-03T18:36:30.560Z,31.94
2018-06-03T18:41:33.844Z,31.70
2018-06-03T18:46:37.133Z,31.27
2018-06-03T18:51:40.415Z,30.74
2018-06-03T18:56:43.704Z,30.29
2018-06-03T19:01:46.992Z,29.94
2018-06-03T19:06:50.284Z,29.63
2018-06-03T19:11:53.573Z,29.45
2018-06-03T19:17:11.429Z,29.31
2018-06-03T19:22:14.716Z,28.76
2018-06-03T19:27:18.004Z,28.56
2018-06-03T19:32:21.292Z,28.27
2018-06-03T19:37:24.577Z,28.14
2018-06-03T19:42:27.860Z,27.89
2018-06-03T19:47:31.146Z,27.89
2018-06-03T19:52:35.202Z,27.84
2018-06-03T19:57:38.484Z,27.81
2018-06-03T20:02:42.522Z,27.76
2018-06-03T20:07:46.577Z,27.55
2018-06-03T20:12:49.861Z,27.43
2018-06-03T20:17:53.175Z,27.43
2018-06-03T20:22:56.425Z,27.44
2018-06-03T20:27:59.723Z,27.38
2018-06-03T20:33:03.012Z,27.24
2018-06-03T20:38:07.209Z,27.13
2018-06-03T20:43:10.533Z,26.99
2018-06-03T20:48:14.760Z,26.87
2018-06-03T20:53:18.414Z,26.81
2018-06-03T20:58:22.496Z,26.76
2018-06-03T21:03:26.292Z,26.65
2018-06-03T21:08:30.710Z,26.53
2018-06-03T21:13:34.765Z,26.46
2018-06-03T21:18:38.067Z,26.45
2018-06-03T21:23:41.373Z,26.41
2018-06-03T21:28:44.679Z,26.26
2018-06-03T21:33:48.759Z,26.06
2018-06-03T21:38:52.066Z,25.98
2018-06-03T21:43:55.337Z,25.85
2018-06-03T21:48:58.626Z,25.75
2018-06-03T21:54:01.917Z,25.70
2018-06-03T21:59:05.201Z,25.71
2018-06-03T22:04:08.497Z,25.56
2018-06-03T22:09:11.805Z,25.42
2018-06-03T22:14:15.102Z,25.31
2018-06-03T22:19:18.497Z,25.19
2018-06-03T22:24:22.567Z,25.07
2018-06-03T22:29:26.168Z,24.93
